Time,TemperatureF,DewpointF,PressureIn,WindDirection,WindDirectionDegrees,WindSpeedMPH,WindSpeedGustMPH,Humidity,HourlyPrecipIn,Conditions,Clouds,dailyrainin,SolarRadiationWatts/m^2,SoftwareType,DateUTC
2013-01-18 00:02:00,62.0,56.0,-100.00,SE,134,7.0,10.0,80,0.00,,,0.00,1.000000,,2013-01-18 10:02:00,
2013-01-18 00:12:00,62.0,56.0,-100.00,SE,134,7.0,10.0,80,0.00,,,0.00,1.000000,,2013-01-18 10:12:00,
2013-01-18 00:22:00,62.0,56.0,-100.00,SE,134,7.0,10.0,80,0.00,,,0.00,1.000000,,2013-01-18 10:22:00,
2013-01-18 00:32:00,62.0,56.0,-100.00,SE,134,7.0,10.0,80,0.00,,,0.00,1.000000,,2013-01-18 10:32:00,
2013-01-18 01:02:00,61.0,53.0,-100.00,SE,134,7.0,11.0,76,0.00,,,0.00,1.000000,,2013-01-18 11:02:00,
2013-01-18 01:12:00,61.0,53.0,-100.00,SE,134,7.0,11.0,76,0.00,,,0.00,1.000000,,2013-01-18 11:12:00,
2013-01-18 01:22:00,61.0,53.0,-100.00,SE,134,7.0,11.0,76,0.00,,,0.00,1.000000,,2013-01-18 11:22:00,
2013-01-18 01:32:00,61.0,53.0,-100.00,SE,134,7.0,11.0,76,0.00,,,0.00,1.000000,,2013-01-18 11:32:00,
2013-01-18 01:53:00,61.0,53.0,-100.00,SE,132,6.0,10.0,76,0.00,,,0.00,1.000000,,2013-01-18 11:53:00,
2013-01-18 02:02:00,61.0,53.0,-100.00,SE,132,6.0,10.0,76,0.00,,,0.00,1.000000,,2013-01-18 12:02:00,
2013-01-18 02:12:00,61.0,53.0,-100.00,SE,132,6.0,10.0,76,0.00,,,0.00,1.000000,,2013-01-18 12:12:00,
2013-01-18 02:22:00,61.0,53.0,-100.00,SE,132,6.0,10.0,76,0.00,,,0.00,1.000000,,2013-01-18 12:22:00,
2013-01-18 02:32:00,61.0,53.0,-100.00,SE,132,6.0,10.0,76,0.00,,,0.00,1.000000,,2013-01-18 12:32:00,
2013-01-18 02:53:00,63.0,54.0,-100.00,SE,137,8.0,11.0,73,0.00,,,0.00,1.000000,,2013-01-18 12:53:00,
2013-01-18 03:03:00,63.0,54.0,-100.00,SE,137,8.0,11.0,73,0.00,,,0.00,1.000000,,2013-01-18 13:03:00,
2013-01-18 03:12:00,63.0,54.0,-100.00,SE,137,8.0,11.0,73,0.00,,,0.00,1.000000,,2013-01-18 13:12:00,
2013-01-18 03:22:00,63.0,54.0,-100.00,SE,137,8.0,11.0,73,0.00,,,0.00,1.000000,,2013-01-18 13:22:00,
2013-01-18 03:33:00,63.0,54.0,-100.00,SE,137,8.0,11.0,73,0.00,,,0.00,1.000000,,2013-01-18 13:33:00,
2013-01-18 04:03:00,63.0,52.0,-100.00,SE,133,6.0,10.0,68,0.00,,,-99.99,1.000000,,2013-01-18 14:03:00,
2013-01-18 04:12:00,63.0,52.0,-100.00,SE,133,6.0,10.0,68,0.00,,,-99.99,1.000000,,2013-01-18 14:12:00,
2013-01-18 04:22:00,63.0,52.0,-100.00,SE,133,6.0,10.0,68,0.00,,,-99.99,1.000000,,2013-01-18 14:22:00,
2013-01-18 04:33:00,63.0,52.0,-100.00,SE,133,6.0,10.0,68,0.00,,,-99.99,1.000000,,2013-01-18 14:33:00,
2013-01-18 05:03:00,62.0,53.0,-100.00,SE,132,6.0,9.0,72,0.00,,,0.00,1.000000,,2013-01-18 15:03:00,
2013-01-18 05:12:00,62.0,53.0,-100.00,SE,132,6.0,9.0,72,0.00,,,0.00,1.000000,,2013-01-18 15:12:00,
2013-01-18 05:22:00,62.0,53.0,-100.00,SE,132,6.0,9.0,72,0.00,,,0.00,1.000000,,2013-01-18 15:22:00,
2013-01-18 05:33:00,62.0,53.0,-100.00,SE,132,6.0,9.0,72,0.00,,,0.00,1.000000,,2013-01-18 15:33:00,
2013-01-18 05:53:00,59.0,51.0,-100.00,SE,138,9.0,12.0,76,0.00,,,0.00,1.000000,,2013-01-18 15:53:00,
2013-01-18 06:03:00,59.0,51.0,-100.00,SE,138,9.0,12.0,76,0.00,,,0.00,1.000000,,2013-01-18 16:03:00,
2013-01-18 06:12:00,59.0,51.0,-100.00,SE,138,9.0,12.0,76,0.00,,,0.00,1.000000,,2013-01-18 16:12:00,
2013-01-18 06:23:00,59.0,51.0,-100.00,SE,138,9.0,12.0,76,0.00,,,0.00,1.000000,,2013-01-18 16:23:00,
2013-01-18 06:32:00,59.0,51.0,-100.00,SE,138,9.0,12.0,76,0.00,,,0.00,1.000000,,2013-01-18 16:32:00,
2013-01-18 07:02:00,58.0,50.0,-100.00,SE,127,7.0,13.0,74,0.00,,,0.00,1.000000,,2013-01-18 17:02:00,
2013-01-18 07:12:00,58.0,50.0,-100.00,SE,127,7.0,13.0,74,0.00,,,0.00,1.000000,,2013-01-18 17:12:00,
2013-01-18 07:23:00,58.0,50.0,-100.00,SE,127,7.0,13.0,74,0.00,,,0.00,1.000000,,2013-01-18 17:23:00,
2013-01-18 07:33:00,58.0,50.0,-100.00,SE,127,7.0,13.0,74,0.00,,,0.00,1.000000,,2013-01-18 17:33:00,
2013-01-18 07:53:00,59.0,52.0,-100.00,SE,138,10.0,14.0,78,0.00,,,0.00,8.000000,,2013-01-18 17:53:00,
2013-01-18 08:03:00,59.0,52.0,-100.00,SE,138,10.0,14.0,78,0.00,,,0.00,8.000000,,2013-01-18 18:03:00,
2013-01-18 08:12:00,59.0,52.0,-100.00,SE,138,10.0,14.0,78,0.00,,,0.00,8.000000,,2013-01-18 18:12:00,
2013-01-18 08:23:00,59.0,52.0,-100.00,SE,138,10.0,14.0,78,0.00,,,0.00,8.000000,,2013-01-18 18:23:00,
2013-01-18 08:32:00,59.0,52.0,-100.00,SE,138,10.0,14.0,78,0.00,,,0.00,8.000000,,2013-01-18 18:32:00,
2013-01-18 08:53:00,69.0,55.0,-100.00,SE,138,7.0,14.0,61,0.00,,,0.00,197.000000,,2013-01-18 18:53:00,
2013-01-18 09:02:00,69.0,55.0,-100.00,SE,138,7.0,14.0,61,0.00,,,0.00,197.000000,,2013-01-18 19:02:00,
2013-01-18 09:12:00,69.0,55.0,-100.00,SE,138,7.0,14.0,61,0.00,,,0.00,197.000000,,2013-01-18 19:12:00,
2013-01-18 09:22:00,69.0,55.0,-100.00,SE,138,7.0,14.0,61,0.00,,,0.00,197.000000,,2013-01-18 19:22:00,
2013-01-18 09:32:00,69.0,55.0,-100.00,SE,138,7.0,14.0,61,0.00,,,0.00,197.000000,,2013-01-18 19:32:00,
2013-01-18 10:03:00,73.0,53.0,-100.00,SW,228,5.0,9.0,50,0.00,,,0.00,417.000000,,2013-01-18 20:03:00,
2013-01-18 10:12:00,73.0,53.0,-100.00,SW,228,5.0,9.0,50,0.00,,,0.00,417.000000,,2013-01-18 20:12:00,
2013-01-18 10:22:00,73.0,53.0,-100.00,SW,228,5.0,9.0,50,0.00,,,0.00,417.000000,,2013-01-18 20:22:00,
2013-01-18 10:33:00,73.0,53.0,-100.00,SW,228,5.0,9.0,50,0.00,,,0.00,417.000000,,2013-01-18 20:33:00,
2013-01-18 11:03:00,75.0,53.0,-100.00,WNW,289,7.0,12.0,47,0.00,,,0.00,604.000000,,2013-01-18 21:03:00,
2013-01-18 11:12:00,75.0,53.0,-100.00,WNW,289,7.0,12.0,47,0.00,,,0.00,604.000000,,2013-01-18 21:12:00,
2013-01-18 11:22:00,75.0,53.0,-100.00,WNW,289,7.0,12.0,47,0.00,,,0.00,604.000000,,2013-01-18 21:22:00,
2013-01-18 11:32:00,75.0,53.0,-100.00,WNW,289,7.0,12.0,47,0.00,,,0.00,604.000000,,2013-01-18 21:32:00,
2013-01-18 12:03:00,75.0,54.0,-100.00,WNW,302,6.0,12.0,48,0.00,,,0.00,736.000000,,2013-01-18 22:03:00,
2013-01-18 12:12:00,75.0,54.0,-100.00,WNW,302,6.0,12.0,48,0.00,,,0.00,736.000000,,2013-01-18 22:12:00,
2013-01-18 12:22:00,75.0,54.0,-100.00,WNW,302,6.0,12.0,48,0.00,,,0.00,736.000000,,2013-01-18 22:22:00,
2013-01-18 12:32:00,75.0,54.0,-100.00,WNW,302,6.0,12.0,48,0.00,,,0.00,736.000000,,2013-01-18 22:32:00,
2013-01-18 12:53:00,76.0,54.0,-100.00,WNW,292,8.0,14.0,47,0.00,,,0.00,805.000000,,2013-01-18 22:53:00,
2013-01-18 13:02:00,76.0,54.0,-100.00,WNW,292,8.0,14.0,47,0.00,,,0.00,805.000000,,2013-01-18 23:02:00,
2013-01-18 13:12:00,76.0,54.0,-100.00,WNW,292,8.0,14.0,47,0.00,,,0.00,805.000000,,2013-01-18 23:12:00,
2013-01-18 13:22:00,76.0,54.0,-100.00,WNW,292,8.0,14.0,47,0.00,,,0.00,805.000000,,2013-01-18 23:22:00,
2013-01-18 13:32:00,76.0,54.0,-100.00,WNW,292,8.0,14.0,47,0.00,,,0.00,805.000000,,2013-01-18 23:32:00,
2013-01-18 14:02:00,76.0,55.0,-100.00,West,277,9.0,15.0,48,0.00,,,0.00,818.000000,,2013-01-19 00:02:00,
2013-01-18 14:12:00,76.0,55.0,-100.00,West,277,9.0,15.0,48,0.00,,,0.00,818.000000,,2013-01-19 00:12:00,
2013-01-18 14:22:00,76.0,55.0,-100.00,West,277,9.0,15.0,48,0.00,,,0.00,818.000000,,2013-01-19 00:22:00,
2013-01-18 14:32:00,76.0,55.0,-100.00,West,277,9.0,15.0,48,0.00,,,0.00,818.000000,,2013-01-19 00:32:00,
2013-01-18 15:02:00,76.0,58.0,-100.00,WNW,298,7.0,14.0,53,0.00,,,0.00,688.000000,,2013-01-19 01:02:00,
2013-01-18 15:12:00,76.0,58.0,-100.00,WNW,298,7.0,14.0,53,0.00,,,0.00,688.000000,,2013-01-19 01:12:00,
2013-01-18 15:22:00,76.0,58.0,-100.00,WNW,298,7.0,14.0,53,0.00,,,0.00,688.000000,,2013-01-19 01:22:00,
2013-01-18 15:32:00,76.0,58.0,-100.00,WNW,298,7.0,14.0,53,0.00,,,0.00,688.000000,,2013-01-19 01:32:00,
2013-01-18 16:02:00,76.0,59.0,-100.00,NW,306,8.0,15.0,56,0.00,,,0.00,582.000000,,2013-01-19 02:02:00,
2013-01-18 16:12:00,76.0,59.0,-100.00,NW,306,8.0,15.0,56,0.00,,,0.00,582.000000,,2013-01-19 02:12:00,
2013-01-18 16:22:00,76.0,59.0,-100.00,NW,306,8.0,15.0,56,0.00,,,0.00,582.000000,,2013-01-19 02:22:00,
2013-01-18 16:32:00,76.0,59.0,-100.00,NW,306,8.0,15.0,56,0.00,,,0.00,582.000000,,2013-01-19 02:32:00,
2013-01-18 16:53:00,75.0,61.0,-100.00,West,275,5.0,14.0,61,0.00,,,0.00,394.000000,,2013-01-19 02:53:00,
2013-01-18 17:02:00,75.0,61.0,-100.00,West,275,5.0,14.0,61,0.00,,,0.00,394.000000,,2013-01-19 03:02:00,
2013-01-18 17:12:00,75.0,61.0,-100.00,West,275,5.0,14.0,61,0.00,,,0.00,394.000000,,2013-01-19 03:12:00,
2013-01-18 17:22:00,75.0,61.0,-100.00,West,275,5.0,14.0,61,0.00,,,0.00,394.000000,,2013-01-19 03:22:00,
2013-01-18 17:32:00,75.0,61.0,-100.00,West,275,5.0,14.0,61,0.00,,,0.00,394.000000,,2013-01-19 03:32:00,
2013-01-18 17:52:00,72.0,60.0,-100.00,WNW,295,7.0,11.0,65,0.00,,,-99.99,141.000000,,2013-01-19 03:52:00,
2013-01-18 18:02:00,72.0,60.0,-100.00,WNW,295,7.0,11.0,65,0.00,,,-99.99,141.000000,,2013-01-19 04:02:00,
2013-01-18 18:12:00,72.0,60.0,-100.00,WNW,295,7.0,11.0,65,0.00,,,-99.99,141.000000,,2013-01-19 04:12:00,
2013-01-18 18:22:00,72.0,60.0,-100.00,WNW,295,7.0,11.0,65,0.00,,,-99.99,141.000000,,2013-01-19 04:22:00,
2013-01-18 18:32:00,72.0,60.0,-100.00,WNW,295,7.0,11.0,65,0.00,,,-99.99,141.000000,,2013-01-19 04:32:00,
2013-01-18 19:03:00,71.0,60.0,-100.00,West,267,5.0,11.0,69,0.00,,,0.00,23.000000,,2013-01-19 05:03:00,
2013-01-18 19:12:00,71.0,60.0,-100.00,West,267,5.0,11.0,69,0.00,,,0.00,23.000000,,2013-01-19 05:12:00,
2013-01-18 19:22:00,71.0,60.0,-100.00,West,267,5.0,11.0,69,0.00,,,0.00,23.000000,,2013-01-19 05:22:00,
2013-01-18 19:32:00,71.0,60.0,-100.00,West,267,5.0,11.0,69,0.00,,,0.00,23.000000,,2013-01-19 05:32:00,
2013-01-18 20:02:00,70.0,59.0,-100.00,SSW,204,3.0,7.0,69,0.00,,,0.00,1.000000,,2013-01-19 06:02:00,
2013-01-18 20:12:00,70.0,59.0,-100.00,SSW,204,3.0,7.0,69,0.00,,,0.00,1.000000,,2013-01-19 06:12:00,
2013-01-18 20:22:00,70.0,59.0,-100.00,SSW,204,3.0,7.0,69,0.00,,,0.00,1.000000,,2013-01-19 06:22:00,
2013-01-18 20:32:00,70.0,59.0,-100.00,SSW,204,3.0,7.0,69,0.00,,,0.00,1.000000,,2013-01-19 06:32:00,
2013-01-18 21:02:00,70.0,61.0,-100.00,ESE,115,8.0,13.0,72,0.00,,,0.00,1.000000,,2013-01-19 07:02:00,
2013-01-18 21:12:00,70.0,61.0,-100.00,ESE,115,8.0,13.0,72,0.00,,,0.00,1.000000,,2013-01-19 07:12:00,
2013-01-18 21:22:00,70.0,61.0,-100.00,ESE,115,8.0,13.0,72,0.00,,,0.00,1.000000,,2013-01-19 07:22:00,
2013-01-18 21:32:00,70.0,61.0,-100.00,ESE,115,8.0,13.0,72,0.00,,,0.00,1.000000,,2013-01-19 07:32:00,
2013-01-18 21:52:00,69.0,58.0,-100.00,ESE,107,10.0,14.0,68,0.00,,,0.00,1.000000,,2013-01-19 07:52:00,
2013-01-18 22:02:00,69.0,58.0,-100.00,ESE,107,10.0,14.0,68,0.00,,,0.00,1.000000,,2013-01-19 08:02:00,
2013-01-18 22:12:00,69.0,58.0,-100.00,ESE,107,10.0,14.0,68,0.00,,,0.00,1.000000,,2013-01-19 08:12:00,
2013-01-18 22:22:00,69.0,58.0,-100.00,ESE,107,10.0,14.0,68,0.00,,,0.00,1.000000,,2013-01-19 08:22:00,
2013-01-18 22:32:00,69.0,58.0,-100.00,ESE,107,10.0,14.0,68,0.00,,,0.00,1.000000,,2013-01-19 08:32:00,
2013-01-18 22:53:00,67.0,57.0,-100.00,East,85,11.0,16.0,71,0.00,,,0.00,1.000000,,2013-01-19 08:53:00,
2013-01-18 23:02:00,67.0,57.0,-100.00,East,85,11.0,16.0,71,0.00,,,0.00,1.000000,,2013-01-19 09:02:00,
2013-01-18 23:12:00,67.0,57.0,-100.00,East,85,11.0,16.0,71,0.00,,,0.00,1.000000,,2013-01-19 09:12:00,
2013-01-18 23:22:00,67.0,57.0,-100.00,East,85,11.0,16.0,71,0.00,,,0.00,1.000000,,2013-01-19 09:22:00,
2013-01-18 23:32:00,67.0,57.0,-100.00,East,85,11.0,16.0,71,0.00,,,0.00,1.000000,,2013-01-19 09:32:00,
2013-01-18 23:53:00,66.0,55.0,-100.00,East,90,13.0,18.0,67,0.00,,,0.00,1.000000,,2013-01-19 09:53:00,